sensor_id;sensor_type;location;lat;lon;timestamp;temperature;humidity
17774;DHT22;9011;33.236;-97.118;2024-01-06T00:01:15;10.00;99.90
17774;DHT22;9011;33.236;-97.118;2024-01-06T00:03:43;10.00;99.90
17774;DHT22;9011;33.236;-97.118;2024-01-06T00:06:12;10.00;99.90
17774;DHT22;9011;33.236;-97.118;2024-01-06T00:08:41;10.10;99.90
17774;DHT22;9011;33.236;-97.118;2024-01-06T00:11:09;10.10;99.90
17774;DHT22;9011;33.236;-97.118;2024-01-06T00:13:36;10.10;99.90
17774;DHT22;9011;33.236;-97.118;2024-01-06T00:16:05;10.10;99.90
17774;DHT22;9011;33.236;-97.118;2024-01-06T00:18:33;9.90;99.90
17774;DHT22;9011;33.236;-97.118;2024-01-06T00:21:00;9.80;99.90
17774;DHT22;9011;33.236;-97.118;2024-01-06T00:23:28;9.60;99.90
17774;DHT22;9011;33.236;-97.118;2024-01-06T00:25:57;9.60;99.90
17774;DHT22;9011;33.236;-97.118;2024-01-06T00:28:24;9.70;99.90
17774;DHT22;9011;33.236;-97.118;2024-01-06T00:30:52;9.70;99.90
17774;DHT22;9011;33.236;-97.118;2024-01-06T00:33:20;9.70;99.90
17774;DHT22;9011;33.236;-97.118;2024-01-06T00:35:48;9.60;99.90
17774;DHT22;9011;33.236;-97.118;2024-01-06T00:38:15;9.60;99.90
17774;DHT22;9011;33.236;-97.118;2024-01-06T00:40:43;9.70;99.90
17774;DHT22;9011;33.236;-97.118;2024-01-06T00:43:12;9.60;99.90
17774;DHT22;9011;33.236;-97.118;2024-01-06T00:45:39;9.60;99.90
17774;DHT22;9011;33.236;-97.118;2024-01-06T00:48:07;9.60;99.90
17774;DHT22;9011;33.236;-97.118;2024-01-06T00:50:35;9.60;99.90
17774;DHT22;9011;33.236;-97.118;2024-01-06T00:53:03;9.60;99.90
17774;DHT22;9011;33.236;-97.118;2024-01-06T00:55:31;9.60;99.90
17774;DHT22;9011;33.236;-97.118;2024-01-06T00:57:59;9.60;99.90
17774;DHT22;9011;33.236;-97.118;2024-01-06T01:00:27;9.50;99.90
17774;DHT22;9011;33.236;-97.118;2024-01-06T01:02:55;9.40;99.90
17774;DHT22;9011;33.236;-97.118;2024-01-06T01:05:23;9.50;99.90
17774;DHT22;9011;33.236;-97.118;2024-01-06T01:07:51;9.40;99.90
17774;DHT22;9011;33.236;-97.118;2024-01-06T01:10:18;9.50;99.90
17774;DHT22;9011;33.236;-97.118;2024-01-06T01:12:46;9.40;99.90
17774;DHT22;9011;33.236;-97.118;2024-01-06T01:15:14;9.40;99.90
17774;DHT22;9011;33.236;-97.118;2024-01-06T01:17:43;9.30;99.90
17774;DHT22;9011;33.236;-97.118;2024-01-06T01:20:11;9.30;99.90
17774;DHT22;9011;33.236;-97.118;2024-01-06T01:22:39;9.20;99.90
17774;DHT22;9011;33.236;-97.118;2024-01-06T01:25:07;9.30;99.90
17774;DHT22;9011;33.236;-97.118;2024-01-06T01:27:35;9.30;99.90
17774;DHT22;9011;33.236;-97.118;2024-01-06T01:30:03;9.30;99.90
17774;DHT22;9011;33.236;-97.118;2024-01-06T01:32:31;9.20;99.90
17774;DHT22;9011;33.236;-97.118;2024-01-06T01:35:00;9.30;99.90
17774;DHT22;9011;33.236;-97.118;2024-01-06T01:37:28;9.30;99.90
17774;DHT22;9011;33.236;-97.118;2024-01-06T01:39:55;9.40;99.90
17774;DHT22;9011;33.236;-97.118;2024-01-06T01:42:23;9.40;99.90
17774;DHT22;9011;33.236;-97.118;2024-01-06T01:44:50;9.40;99.90
17774;DHT22;9011;33.236;-97.118;2024-01-06T01:47:18;9.40;99.90
17774;DHT22;9011;33.236;-97.118;2024-01-06T01:49:48;9.40;99.90
17774;DHT22;9011;33.236;-97.118;2024-01-06T01:52:16;9.40;99.90
17774;DHT22;9011;33.236;-97.118;2024-01-06T01:54:45;9.40;99.90
17774;DHT22;9011;33.236;-97.118;2024-01-06T01:57:13;9.50;99.90
17774;DHT22;9011;33.236;-97.118;2024-01-06T01:59:42;9.40;99.90
17774;DHT22;9011;33.236;-97.118;2024-01-06T02:02:10;9.40;99.90
17774;DHT22;9011;33.236;-97.118;2024-01-06T02:04:39;9.40;99.90
17774;DHT22;9011;33.236;-97.118;2024-01-06T02:07:06;9.30;99.90
17774;DHT22;9011;33.236;-97.118;2024-01-06T02:09:35;9.10;99.90
17774;DHT22;9011;33.236;-97.118;2024-01-06T02:12:03;8.90;99.90
17774;DHT22;9011;33.236;-97.118;2024-01-06T02:14:31;8.80;99.90
17774;DHT22;9011;33.236;-97.118;2024-01-06T02:16:59;8.80;99.90
17774;DHT22;9011;33.236;-97.118;2024-01-06T02:19:27;8.70;99.90
17774;DHT22;9011;33.236;-97.118;2024-01-06T02:21:56;8.70;99.90
17774;DHT22;9011;33.236;-97.118;2024-01-06T02:24:24;8.80;99.90
17774;DHT22;9011;33.236;-97.118;2024-01-06T02:26:51;8.90;99.90
17774;DHT22;9011;33.236;-97.118;2024-01-06T02:29:19;8.70;99.90
17774;DHT22;9011;33.236;-97.118;2024-01-06T02:31:46;8.80;99.90
17774;DHT22;9011;33.236;-97.118;2024-01-06T02:34:14;8.80;99.90
17774;DHT22;9011;33.236;-97.118;2024-01-06T02:36:42;8.80;99.90
17774;DHT22;9011;33.236;-97.118;2024-01-06T02:39:10;8.80;99.90
17774;DHT22;9011;33.236;-97.118;2024-01-06T02:41:38;8.60;99.90
17774;DHT22;9011;33.236;-97.118;2024-01-06T02:44:06;8.70;99.90
17774;DHT22;9011;33.236;-97.118;2024-01-06T02:46:35;8.60;99.90
17774;DHT22;9011;33.236;-97.118;2024-01-06T02:49:02;8.40;99.90
17774;DHT22;9011;33.236;-97.118;2024-01-06T02:51:30;8.50;99.90
17774;DHT22;9011;33.236;-97.118;2024-01-06T02:53:58;8.60;99.90
17774;DHT22;9011;33.236;-97.118;2024-01-06T02:56:27;8.50;99.90
17774;DHT22;9011;33.236;-97.118;2024-01-06T02:58:54;8.50;99.90
17774;DHT22;9011;33.236;-97.118;2024-01-06T03:01:22;8.50;99.90
17774;DHT22;9011;33.236;-97.118;2024-01-06T03:03:50;8.50;99.90
17774;DHT22;9011;33.236;-97.118;2024-01-06T03:06:17;8.40;99.90
17774;DHT22;9011;33.236;-97.118;2024-01-06T03:08:45;8.40;99.90
17774;DHT22;9011;33.236;-97.118;2024-01-06T03:11:13;8.20;99.90
17774;DHT22;9011;33.236;-97.118;2024-01-06T03:13:42;8.00;99.90
17774;DHT22;9011;33.236;-97.118;2024-01-06T03:16:11;8.20;99.90
17774;DHT22;9011;33.236;-97.118;2024-01-06T03:18:39;8.10;99.90
17774;DHT22;9011;33.236;-97.118;2024-01-06T03:21:17;7.90;99.90
17774;DHT22;9011;33.236;-97.118;2024-01-06T03:23:44;8.10;99.90
17774;DHT22;9011;33.236;-97.118;2024-01-06T03:26:12;8.10;99.90
17774;DHT22;9011;33.236;-97.118;2024-01-06T03:28:41;8.10;99.90
17774;DHT22;9011;33.236;-97.118;2024-01-06T03:31:09;8.10;99.90
17774;DHT22;9011;33.236;-97.118;2024-01-06T03:33:36;8.20;99.90
17774;DHT22;9011;33.236;-97.118;2024-01-06T03:36:08;8.20;99.90
17774;DHT22;9011;33.236;-97.118;2024-01-06T03:38:35;8.30;99.90
17774;DHT22;9011;33.236;-97.118;2024-01-06T03:41:03;8.30;99.90
17774;DHT22;9011;33.236;-97.118;2024-01-06T03:43:31;8.30;99.90
17774;DHT22;9011;33.236;-97.118;2024-01-06T03:45:59;8.20;99.90
17774;DHT22;9011;33.236;-97.118;2024-01-06T03:48:27;8.30;99.90
17774;DHT22;9011;33.236;-97.118;2024-01-06T03:50:55;8.40;99.90
17774;DHT22;9011;33.236;-97.118;2024-01-06T03:53:22;8.40;99.90
17774;DHT22;9011;33.236;-97.118;2024-01-06T03:55:50;8.50;99.90
17774;DHT22;9011;33.236;-97.118;2024-01-06T03:58:18;8.40;99.90
17774;DHT22;9011;33.236;-97.118;2024-01-06T04:00:46;8.40;99.90
17774;DHT22;9011;33.236;-97.118;2024-01-06T04:03:14;8.40;99.90
17774;DHT22;9011;33.236;-97.118;2024-01-06T04:05:42;8.40;99.90
17774;DHT22;9011;33.236;-97.118;2024-01-06T04:08:09;8.40;99.90
17774;DHT22;9011;33.236;-97.118;2024-01-06T04:10:37;8.40;99.90
17774;DHT22;9011;33.236;-97.118;2024-01-06T04:13:05;8.50;99.90
17774;DHT22;9011;33.236;-97.118;2024-01-06T04:15:32;8.40;99.90
17774;DHT22;9011;33.236;-97.118;2024-01-06T04:18:03;8.50;99.90
17774;DHT22;9011;33.236;-97.118;2024-01-06T04:20:32;8.50;99.90
17774;DHT22;9011;33.236;-97.118;2024-01-06T04:22:59;8.50;99.90
17774;DHT22;9011;33.236;-97.118;2024-01-06T04:25:27;8.50;99.90
17774;DHT22;9011;33.236;-97.118;2024-01-06T04:27:55;8.50;99.90
17774;DHT22;9011;33.236;-97.118;2024-01-06T04:30:22;8.50;99.90
17774;DHT22;9011;33.236;-97.118;2024-01-06T04:32:51;8.60;99.90
17774;DHT22;9011;33.236;-97.118;2024-01-06T04:35:20;8.50;99.90
17774;DHT22;9011;33.236;-97.118;2024-01-06T04:37:49;8.60;99.90
17774;DHT22;9011;33.236;-97.118;2024-01-06T04:40:16;8.60;99.90
17774;DHT22;9011;33.236;-97.118;2024-01-06T04:42:44;8.50;99.90
17774;DHT22;9011;33.236;-97.118;2024-01-06T04:45:12;8.60;99.90
17774;DHT22;9011;33.236;-97.118;2024-01-06T04:47:39;8.50;99.90
17774;DHT22;9011;33.236;-97.118;2024-01-06T04:50:08;8.60;99.90
17774;DHT22;9011;33.236;-97.118;2024-01-06T04:52:35;8.70;99.90
17774;DHT22;9011;33.236;-97.118;2024-01-06T04:55:04;8.60;99.90
17774;DHT22;9011;33.236;-97.118;2024-01-06T04:57:32;8.60;99.90
17774;DHT22;9011;33.236;-97.118;2024-01-06T05:00:00;8.70;99.90
17774;DHT22;9011;33.236;-97.118;2024-01-06T05:02:27;8.60;99.90
17774;DHT22;9011;33.236;-97.118;2024-01-06T05:04:55;8.60;99.90
17774;DHT22;9011;33.236;-97.118;2024-01-06T05:07:23;8.60;99.90
17774;DHT22;9011;33.236;-97.118;2024-01-06T05:09:51;8.60;99.90
17774;DHT22;9011;33.236;-97.118;2024-01-06T05:12:20;8.60;99.90
17774;DHT22;9011;33.236;-97.118;2024-01-06T05:14:47;8.60;99.90
17774;DHT22;9011;33.236;-97.118;2024-01-06T05:17:15;8.50;99.90
17774;DHT22;9011;33.236;-97.118;2024-01-06T05:19:43;8.50;99.90
17774;DHT22;9011;33.236;-97.118;2024-01-06T05:22:11;8.50;99.90
17774;DHT22;9011;33.236;-97.118;2024-01-06T05:24:38;8.50;99.90
17774;DHT22;9011;33.236;-97.118;2024-01-06T05:27:06;8.40;99.90
17774;DHT22;9011;33.236;-97.118;2024-01-06T05:29:34;8.50;99.90
17774;DHT22;9011;33.236;-97.118;2024-01-06T05:32:02;8.40;99.90
17774;DHT22;9011;33.236;-97.118;2024-01-06T05:34:30;8.40;99.90
17774;DHT22;9011;33.236;-97.118;2024-01-06T05:36:58;8.30;99.90
17774;DHT22;9011;33.236;-97.118;2024-01-06T05:39:25;8.20;99.90
17774;DHT22;9011;33.236;-97.118;2024-01-06T05:41:53;8.20;99.90
17774;DHT22;9011;33.236;-97.118;2024-01-06T05:44:21;8.10;99.90
17774;DHT22;9011;33.236;-97.118;2024-01-06T05:46:50;8.00;99.90
17774;DHT22;9011;33.236;-97.118;2024-01-06T05:49:18;8.10;99.90
17774;DHT22;9011;33.236;-97.118;2024-01-06T05:51:45;8.00;99.90
17774;DHT22;9011;33.236;-97.118;2024-01-06T05:54:13;8.00;99.90
17774;DHT22;9011;33.236;-97.118;2024-01-06T05:56:41;8.00;99.90
17774;DHT22;9011;33.236;-97.118;2024-01-06T05:59:08;7.90;99.90
17774;DHT22;9011;33.236;-97.118;2024-01-06T06:01:36;7.90;99.90
17774;DHT22;9011;33.236;-97.118;2024-01-06T06:04:05;7.70;99.90
17774;DHT22;9011;33.236;-97.118;2024-01-06T06:06:32;7.70;99.90
17774;DHT22;9011;33.236;-97.118;2024-01-06T06:09:00;7.60;99.90
17774;DHT22;9011;33.236;-97.118;2024-01-06T06:11:33;7.50;99.90
17774;DHT22;9011;33.236;-97.118;2024-01-06T06:14:02;7.40;99.90
17774;DHT22;9011;33.236;-97.118;2024-01-06T06:16:29;7.40;99.90
17774;DHT22;9011;33.236;-97.118;2024-01-06T06:18:57;7.40;99.90
17774;DHT22;9011;33.236;-97.118;2024-01-06T06:21:26;7.30;99.90
17774;DHT22;9011;33.236;-97.118;2024-01-06T06:23:53;7.20;99.90
17774;DHT22;9011;33.236;-97.118;2024-01-06T06:26:21;7.20;99.90
17774;DHT22;9011;33.236;-97.118;2024-01-06T06:28:49;7.10;99.90
17774;DHT22;9011;33.236;-97.118;2024-01-06T06:31:16;7.10;99.90
17774;DHT22;9011;33.236;-97.118;2024-01-06T06:33:44;7.10;99.90
17774;DHT22;9011;33.236;-97.118;2024-01-06T06:36:11;7.00;99.90
17774;DHT22;9011;33.236;-97.118;2024-01-06T06:38:40;6.90;99.90
17774;DHT22;9011;33.236;-97.118;2024-01-06T06:41:07;6.80;99.90
17774;DHT22;9011;33.236;-97.118;2024-01-06T06:43:35;6.90;99.90
17774;DHT22;9011;33.236;-97.118;2024-01-06T06:46:03;6.80;99.90
17774;DHT22;9011;33.236;-97.118;2024-01-06T06:48:31;6.80;99.90
17774;DHT22;9011;33.236;-97.118;2024-01-06T06:50:58;6.70;99.90
17774;DHT22;9011;33.236;-97.118;2024-01-06T06:53:26;6.60;99.90
17774;DHT22;9011;33.236;-97.118;2024-01-06T06:55:55;6.50;99.90
17774;DHT22;9011;33.236;-97.118;2024-01-06T06:58:23;6.40;99.90
17774;DHT22;9011;33.236;-97.118;2024-01-06T07:00:50;6.40;99.90
17774;DHT22;9011;33.236;-97.118;2024-01-06T07:03:19;6.40;99.90
17774;DHT22;9011;33.236;-97.118;2024-01-06T07:05:47;6.30;99.90
17774;DHT22;9011;33.236;-97.118;2024-01-06T07:08:14;6.20;99.90
17774;DHT22;9011;33.236;-97.118;2024-01-06T07:10:42;6.20;99.90
17774;DHT22;9011;33.236;-97.118;2024-01-06T07:13:11;6.10;99.90
17774;DHT22;9011;33.236;-97.118;2024-01-06T07:15:38;6.10;99.90
17774;DHT22;9011;33.236;-97.118;2024-01-06T07:18:06;6.00;99.90
17774;DHT22;9011;33.236;-97.118;2024-01-06T07:20:34;6.10;99.90
17774;DHT22;9011;33.236;-97.118;2024-01-06T07:23:02;6.00;99.90
17774;DHT22;9011;33.236;-97.118;2024-01-06T07:25:30;5.90;99.90
17774;DHT22;9011;33.236;-97.118;2024-01-06T07:27:57;5.90;99.90
17774;DHT22;9011;33.236;-97.118;2024-01-06T07:30:26;5.90;99.90
17774;DHT22;9011;33.236;-97.118;2024-01-06T07:32:53;5.80;99.90
17774;DHT22;9011;33.236;-97.118;2024-01-06T07:35:21;5.80;99.90
17774;DHT22;9011;33.236;-97.118;2024-01-06T07:37:48;5.70;99.90
17774;DHT22;9011;33.236;-97.118;2024-01-06T07:40:16;5.70;99.90
17774;DHT22;9011;33.236;-97.118;2024-01-06T07:42:44;5.60;99.90
17774;DHT22;9011;33.236;-97.118;2024-01-06T07:45:11;5.40;99.90
17774;DHT22;9011;33.236;-97.118;2024-01-06T07:47:40;5.30;99.90
17774;DHT22;9011;33.236;-97.118;2024-01-06T07:50:09;5.40;99.90
17774;DHT22;9011;33.236;-97.118;2024-01-06T07:52:37;5.30;99.90
17774;DHT22;9011;33.236;-97.118;2024-01-06T07:55:04;5.30;99.90
17774;DHT22;9011;33.236;-97.118;2024-01-06T07:57:32;5.30;99.90
17774;DHT22;9011;33.236;-97.118;2024-01-06T08:00:00;5.30;99.90
17774;DHT22;9011;33.236;-97.118;2024-01-06T08:02:28;5.30;99.90
17774;DHT22;9011;33.236;-97.118;2024-01-06T08:04:56;5.30;99.90
17774;DHT22;9011;33.236;-97.118;2024-01-06T08:07:24;5.20;99.90
17774;DHT22;9011;33.236;-97.118;2024-01-06T08:09:52;5.20;99.90
17774;DHT22;9011;33.236;-97.118;2024-01-06T08:12:20;5.10;99.90
17774;DHT22;9011;33.236;-97.118;2024-01-06T08:14:47;5.10;99.90
17774;DHT22;9011;33.236;-97.118;2024-01-06T08:17:15;5.00;99.90
17774;DHT22;9011;33.236;-97.118;2024-01-06T08:19:42;4.90;99.90
17774;DHT22;9011;33.236;-97.118;2024-01-06T08:22:11;4.80;99.90
17774;DHT22;9011;33.236;-97.118;2024-01-06T08:24:38;4.90;99.90
17774;DHT22;9011;33.236;-97.118;2024-01-06T08:27:06;4.90;99.90
17774;DHT22;9011;33.236;-97.118;2024-01-06T08:29:34;5.00;99.90
17774;DHT22;9011;33.236;-97.118;2024-01-06T08:32:02;4.80;99.90
17774;DHT22;9011;33.236;-97.118;2024-01-06T08:34:30;4.80;99.90
17774;DHT22;9011;33.236;-97.118;2024-01-06T08:36:57;4.80;99.90
17774;DHT22;9011;33.236;-97.118;2024-01-06T08:39:26;4.80;99.90
17774;DHT22;9011;33.236;-97.118;2024-01-06T08:41:53;4.80;99.90
17774;DHT22;9011;33.236;-97.118;2024-01-06T08:44:21;4.80;99.90
17774;DHT22;9011;33.236;-97.118;2024-01-06T08:46:48;4.90;99.90
17774;DHT22;9011;33.236;-97.118;2024-01-06T08:49:16;4.90;99.90
17774;DHT22;9011;33.236;-97.118;2024-01-06T08:51:44;4.90;99.90
17774;DHT22;9011;33.236;-97.118;2024-01-06T08:54:12;5.00;99.90
17774;DHT22;9011;33.236;-97.118;2024-01-06T08:56:40;5.00;99.90
17774;DHT22;9011;33.236;-97.118;2024-01-06T08:59:08;5.10;99.90
17774;DHT22;9011;33.236;-97.118;2024-01-06T09:01:35;5.10;99.90
17774;DHT22;9011;33.236;-97.118;2024-01-06T09:04:04;5.20;99.90
17774;DHT22;9011;33.236;-97.118;2024-01-06T09:06:33;5.20;99.90
17774;DHT22;9011;33.236;-97.118;2024-01-06T09:09:00;5.30;99.90
17774;DHT22;9011;33.236;-97.118;2024-01-06T09:11:28;5.20;99.90
17774;DHT22;9011;33.236;-97.118;2024-01-06T09:13:57;5.30;99.90
17774;DHT22;9011;33.236;-97.118;2024-01-06T09:16:24;5.30;99.90
17774;DHT22;9011;33.236;-97.118;2024-01-06T09:18:52;5.30;99.90
17774;DHT22;9011;33.236;-97.118;2024-01-06T09:21:20;5.30;99.90
17774;DHT22;9011;33.236;-97.118;2024-01-06T09:23:47;5.40;99.90
17774;DHT22;9011;33.236;-97.118;2024-01-06T09:26:15;5.40;99.90
17774;DHT22;9011;33.236;-97.118;2024-01-06T09:28:43;5.30;99.90
17774;DHT22;9011;33.236;-97.118;2024-01-06T09:31:11;5.40;99.90
17774;DHT22;9011;33.236;-97.118;2024-01-06T09:33:40;5.30;99.90
17774;DHT22;9011;33.236;-97.118;2024-01-06T09:36:08;5.30;99.90
17774;DHT22;9011;33.236;-97.118;2024-01-06T09:38:38;5.30;99.90
17774;DHT22;9011;33.236;-97.118;2024-01-06T09:41:06;5.30;99.90
17774;DHT22;9011;33.236;-97.118;2024-01-06T09:43:34;5.40;99.90
17774;DHT22;9011;33.236;-97.118;2024-01-06T09:46:06;5.30;99.90
17774;DHT22;9011;33.236;-97.118;2024-01-06T09:48:40;5.40;99.90
17774;DHT22;9011;33.236;-97.118;2024-01-06T09:51:11;5.30;99.90
17774;DHT22;9011;33.236;-97.118;2024-01-06T09:53:44;5.30;99.90
17774;DHT22;9011;33.236;-97.118;2024-01-06T09:56:16;5.30;99.90
17774;DHT22;9011;33.236;-97.118;2024-01-06T09:58:44;5.30;99.90
17774;DHT22;9011;33.236;-97.118;2024-01-06T10:01:12;5.40;99.90
17774;DHT22;9011;33.236;-97.118;2024-01-06T10:03:42;5.30;99.90
17774;DHT22;9011;33.236;-97.118;2024-01-06T10:06:09;5.40;99.90
17774;DHT22;9011;33.236;-97.118;2024-01-06T10:08:37;5.30;99.90
17774;DHT22;9011;33.236;-97.118;2024-01-06T10:11:07;5.30;99.90
17774;DHT22;9011;33.236;-97.118;2024-01-06T10:13:34;5.30;99.90
17774;DHT22;9011;33.236;-97.118;2024-01-06T10:16:02;5.20;99.90
17774;DHT22;9011;33.236;-97.118;2024-01-06T10:18:30;5.20;99.90
17774;DHT22;9011;33.236;-97.118;2024-01-06T10:21:00;5.10;99.90
17774;DHT22;9011;33.236;-97.118;2024-01-06T10:23:32;5.20;99.90
17774;DHT22;9011;33.236;-97.118;2024-01-06T10:26:00;5.20;99.90
17774;DHT22;9011;33.236;-97.118;2024-01-06T10:28:28;5.20;99.90
17774;DHT22;9011;33.236;-97.118;2024-01-06T10:30:56;5.20;99.90
17774;DHT22;9011;33.236;-97.118;2024-01-06T10:33:26;5.20;99.90
17774;DHT22;9011;33.236;-97.118;2024-01-06T10:35:53;5.10;99.90
17774;DHT22;9011;33.236;-97.118;2024-01-06T10:38:23;5.20;99.90
17774;DHT22;9011;33.236;-97.118;2024-01-06T10:40:59;5.20;99.90
17774;DHT22;9011;33.236;-97.118;2024-01-06T10:43:29;5.30;99.90
17774;DHT22;9011;33.236;-97.118;2024-01-06T10:46:01;5.20;99.90
17774;DHT22;9011;33.236;-97.118;2024-01-06T10:48:32;5.10;99.90
17774;DHT22;9011;33.236;-97.118;2024-01-06T10:51:00;5.20;99.90
17774;DHT22;9011;33.236;-97.118;2024-01-06T10:53:30;5.10;99.90
17774;DHT22;9011;33.236;-97.118;2024-01-06T10:55:58;5.10;99.90
17774;DHT22;9011;33.236;-97.118;2024-01-06T10:58:25;5.20;99.90
17774;DHT22;9011;33.236;-97.118;2024-01-06T11:00:55;5.20;99.90
17774;DHT22;9011;33.236;-97.118;2024-01-06T11:03:23;5.20;99.90
17774;DHT22;9011;33.236;-97.118;2024-01-06T11:05:51;5.20;99.90
17774;DHT22;9011;33.236;-97.118;2024-01-06T11:08:19;5.20;99.90
17774;DHT22;9011;33.236;-97.118;2024-01-06T11:10:49;5.20;99.90
17774;DHT22;9011;33.236;-97.118;2024-01-06T11:13:21;5.30;99.90
17774;DHT22;9011;33.236;-97.118;2024-01-06T11:15:51;5.30;99.90
17774;DHT22;9011;33.236;-97.118;2024-01-06T11:18:36;5.30;99.90
17774;DHT22;9011;33.236;-97.118;2024-01-06T11:21:20;5.30;99.90
17774;DHT22;9011;33.236;-97.118;2024-01-06T11:24:12;5.30;99.90
17774;DHT22;9011;33.236;-97.118;2024-01-06T11:26:44;5.40;99.90
17774;DHT22;9011;33.236;-97.118;2024-01-06T11:29:12;5.40;99.90
17774;DHT22;9011;33.236;-97.118;2024-01-06T11:31:39;5.30;99.90
17774;DHT22;9011;33.236;-97.118;2024-01-06T11:34:15;5.40;99.90
17774;DHT22;9011;33.236;-97.118;2024-01-06T11:36:44;5.40;99.90
17774;DHT22;9011;33.236;-97.118;2024-01-06T11:39:36;5.30;99.90
17774;DHT22;9011;33.236;-97.118;2024-01-06T11:42:05;5.20;99.90
17774;DHT22;9011;33.236;-97.118;2024-01-06T11:44:35;5.30;99.90
17774;DHT22;9011;33.236;-97.118;2024-01-06T11:47:04;5.20;99.90
17774;DHT22;9011;33.236;-97.118;2024-01-06T11:49:32;5.20;99.90
17774;DHT22;9011;33.236;-97.118;2024-01-06T11:52:00;5.20;99.90
17774;DHT22;9011;33.236;-97.118;2024-01-06T11:54:29;5.10;99.90
17774;DHT22;9011;33.236;-97.118;2024-01-06T11:56:58;5.00;99.90
17774;DHT22;9011;33.236;-97.118;2024-01-06T11:59:26;5.00;99.90
17774;DHT22;9011;33.236;-97.118;2024-01-06T12:01:54;5.00;99.90
17774;DHT22;9011;33.236;-97.118;2024-01-06T12:04:21;4.90;99.90
17774;DHT22;9011;33.236;-97.118;2024-01-06T12:06:51;4.80;99.90
17774;DHT22;9011;33.236;-97.118;2024-01-06T12:09:20;4.70;99.90
17774;DHT22;9011;33.236;-97.118;2024-01-06T12:12:01;4.60;99.90
17774;DHT22;9011;33.236;-97.118;2024-01-06T12:14:30;4.60;99.90
17774;DHT22;9011;33.236;-97.118;2024-01-06T12:16:59;4.50;99.90
17774;DHT22;9011;33.236;-97.118;2024-01-06T12:19:30;4.50;99.90
17774;DHT22;9011;33.236;-97.118;2024-01-06T12:21:58;4.40;99.90
17774;DHT22;9011;33.236;-97.118;2024-01-06T12:24:27;4.40;99.90
17774;DHT22;9011;33.236;-97.118;2024-01-06T12:26:56;4.40;99.90
17774;DHT22;9011;33.236;-97.118;2024-01-06T12:29:27;4.40;99.90
17774;DHT22;9011;33.236;-97.118;2024-01-06T12:31:56;4.30;99.90
17774;DHT22;9011;33.236;-97.118;2024-01-06T12:34:24;4.30;99.90
17774;DHT22;9011;33.236;-97.118;2024-01-06T12:36:53;4.40;99.90
17774;DHT22;9011;33.236;-97.118;2024-01-06T12:39:22;4.30;99.90
17774;DHT22;9011;33.236;-97.118;2024-01-06T12:41:51;4.40;99.90
17774;DHT22;9011;33.236;-97.118;2024-01-06T12:44:18;4.40;99.90
17774;DHT22;9011;33.236;-97.118;2024-01-06T12:46:46;4.50;99.90
17774;DHT22;9011;33.236;-97.118;2024-01-06T12:49:15;4.50;99.90
17774;DHT22;9011;33.236;-97.118;2024-01-06T12:51:42;4.50;99.90
17774;DHT22;9011;33.236;-97.118;2024-01-06T12:54:10;4.60;99.90
17774;DHT22;9011;33.236;-97.118;2024-01-06T12:56:38;4.60;99.90
17774;DHT22;9011;33.236;-97.118;2024-01-06T12:59:06;4.60;99.90
17774;DHT22;9011;33.236;-97.118;2024-01-06T13:01:35;4.70;99.90
17774;DHT22;9011;33.236;-97.118;2024-01-06T13:04:03;4.70;99.90
17774;DHT22;9011;33.236;-97.118;2024-01-06T13:06:31;4.70;99.90
17774;DHT22;9011;33.236;-97.118;2024-01-06T13:08:59;4.70;99.90
17774;DHT22;9011;33.236;-97.118;2024-01-06T13:11:28;4.70;99.90
17774;DHT22;9011;33.236;-97.118;2024-01-06T13:13:56;4.80;99.90
17774;DHT22;9011;33.236;-97.118;2024-01-06T13:16:23;4.80;99.90
17774;DHT22;9011;33.236;-97.118;2024-01-06T13:18:51;4.80;99.90
17774;DHT22;9011;33.236;-97.118;2024-01-06T13:21:19;4.80;99.90
17774;DHT22;9011;33.236;-97.118;2024-01-06T13:23:47;4.90;99.90
17774;DHT22;9011;33.236;-97.118;2024-01-06T13:26:15;4.90;99.90
17774;DHT22;9011;33.236;-97.118;2024-01-06T13:28:42;5.00;99.90
17774;DHT22;9011;33.236;-97.118;2024-01-06T13:31:10;5.00;99.90
17774;DHT22;9011;33.236;-97.118;2024-01-06T13:33:38;4.90;99.90
17774;DHT22;9011;33.236;-97.118;2024-01-06T13:36:06;4.90;99.90
17774;DHT22;9011;33.236;-97.118;2024-01-06T13:38:33;5.00;99.90
17774;DHT22;9011;33.236;-97.118;2024-01-06T13:41:02;5.10;99.90
17774;DHT22;9011;33.236;-97.118;2024-01-06T13:43:30;5.10;99.90
17774;DHT22;9011;33.236;-97.118;2024-01-06T13:45:58;5.10;99.90
17774;DHT22;9011;33.236;-97.118;2024-01-06T13:48:25;5.10;99.90
17774;DHT22;9011;33.236;-97.118;2024-01-06T13:50:53;5.10;99.90
17774;DHT22;9011;33.236;-97.118;2024-01-06T13:53:21;5.00;99.90
17774;DHT22;9011;33.236;-97.118;2024-01-06T13:55:48;5.10;99.90
17774;DHT22;9011;33.236;-97.118;2024-01-06T13:58:17;5.20;99.90
17774;DHT22;9011;33.236;-97.118;2024-01-06T14:00:45;5.20;99.90
17774;DHT22;9011;33.236;-97.118;2024-01-06T14:03:14;5.30;99.90
17774;DHT22;9011;33.236;-97.118;2024-01-06T14:05:42;5.30;99.90
17774;DHT22;9011;33.236;-97.118;2024-01-06T14:08:10;5.30;99.90
17774;DHT22;9011;33.236;-97.118;2024-01-06T14:10:37;7.20;99.90
17774;DHT22;9011;33.236;-97.118;2024-01-06T14:13:05;5.30;99.90
17774;DHT22;9011;33.236;-97.118;2024-01-06T14:15:34;5.30;99.90
17774;DHT22;9011;33.236;-97.118;2024-01-06T14:18:03;5.40;99.90
17774;DHT22;9011;33.236;-97.118;2024-01-06T14:20:31;5.50;99.90
17774;DHT22;9011;33.236;-97.118;2024-01-06T14:23:04;5.50;99.90
17774;DHT22;9011;33.236;-97.118;2024-01-06T14:25:31;5.50;99.90
17774;DHT22;9011;33.236;-97.118;2024-01-06T14:27:59;5.50;99.90
17774;DHT22;9011;33.236;-97.118;2024-01-06T14:30:27;5.60;99.90
17774;DHT22;9011;33.236;-97.118;2024-01-06T14:32:56;5.60;99.90
17774;DHT22;9011;33.236;-97.118;2024-01-06T14:35:23;5.60;99.90
17774;DHT22;9011;33.236;-97.118;2024-01-06T14:37:51;5.50;99.90
17774;DHT22;9011;33.236;-97.118;2024-01-06T14:40:20;5.60;99.90
17774;DHT22;9011;33.236;-97.118;2024-01-06T14:42:48;5.60;99.90
17774;DHT22;9011;33.236;-97.118;2024-01-06T14:45:15;5.60;99.90
17774;DHT22;9011;33.236;-97.118;2024-01-06T14:47:44;5.70;99.90
17774;DHT22;9011;33.236;-97.118;2024-01-06T14:50:13;5.70;99.90
17774;DHT22;9011;33.236;-97.118;2024-01-06T14:52:40;5.70;99.90
17774;DHT22;9011;33.236;-97.118;2024-01-06T14:57:37;5.70;99.90
17774;DHT22;9011;33.236;-97.118;2024-01-06T15:00:06;5.70;99.90
17774;DHT22;9011;33.236;-97.118;2024-01-06T15:02:36;5.70;99.90
17774;DHT22;9011;33.236;-97.118;2024-01-06T15:05:05;5.70;99.90
